Time;durP1;ratioP1;P1;durP2;ratioP2;P2;SDS_P1;SDS_P2;PMS_P1;PMS_P2;Temp;Humidity;BMP_temperature;BMP_pressure;BME280_temperature;BME280_humidity;BME280_pressure;Samples;Min_cycle;Max_cycle;Signal;HPM_P1;HPM_P2
2023/11/05 17:02:02;;;;;;;34.33;15.93;;;;;;;12.01;77.88;98162.16;5649774;22;15280192;-90
2023/11/05 17:04:29;;;;;;;40.42;17.58;;;;;;;11.63;77.83;98088.75;6173322;23;20066;-90
2023/11/05 17:16:55;;;;;;;34.08;16.77;;;;;;;11.77;77.43;98111.84;6282009;22;20019;-92
2023/11/05 17:20:16;;;;;;;29.75;17.83;;;;;;;12.16;77.75;98169.63;6274183;22;20004;-92
2023/11/05 17:23:40;;;;;;;;;;;;;;;;;;;;;
2023/11/05 19:44:26;;;;;;;23.10;12.40;;;;;;;10.91;78.12;97993.78;6302713;22;20106;-91
2023/11/05 19:47:16;;;;;;;21.00;12.38;;;;;;;11.26;78.45;98045.16;6282925;22;20007;-91
2023/11/05 19:53:06;;;;;;;27.40;13.18;;;;;;;10.96;78.38;98014.59;6297808;22;19999;-92
2023/11/05 19:55:45;;;;;;;28.23;12.73;;;;;;;10.78;77.95;97986.75;6195608;23;20018;-92
2023/11/05 19:59:40;;;;;;;23.67;12.23;;;;;;;11.27;78.52;98079.56;6107586;23;20026;-90
2023/11/05 20:18:17;;;;;;;20.52;11.60;;;;;;;10.47;78.41;97958.16;6289553;22;20038;-90
2023/11/05 20:33:00;;;;;;;20.10;10.20;;;;;;;10.49;80.36;97974.19;6277751;22;20039;-91
2023/11/05 20:39:07;;;;;;;19.10;11.02;;;;;;;10.52;81.11;97965.31;6292910;22;20023;-92
2023/11/05 20:41:58;;;;;;;19.00;10.43;;;;;;;10.55;81.59;97984.53;6155416;23;20032;-89
2023/11/05 20:44:45;;;;;;;;;;;;;;;;;;;;;
2023/11/05 20:47:19;;;;;;;17.33;10.85;;;;;;;10.44;82.71;97999.03;6208986;23;20078;-90
2023/11/05 20:49:52;;;;;;;18.23;10.38;;;;;;;10.42;83.19;97985.69;6237215;23;20044;-91
2023/11/05 20:52:33;;;;;;;15.90;10.38;;;;;;;10.43;83.48;98003.69;6263868;22;20023;-90
2023/11/05 20:55:05;;;;;;;15.82;9.30;;;;;;;9.92;83.55;97932.25;6237260;23;20045;-90
2023/11/05 20:57:44;;;;;;;15.30;9.65;;;;;;;10.15;84.28;97954.41;6255397;23;20020;-90
2023/11/05 21:01:16;;;;;;;16.33;9.98;;;;;;;10.49;84.08;98006.97;6237357;23;20064;-88
2023/11/05 21:05:17;;;;;;;13.75;9.63;;;;;;;10.53;84.07;98002.44;6266043;23;20044;-89
2023/11/05 21:11:05;;;;;;;17.38;9.95;;;;;;;10.14;84.45;97949.31;6204457;23;20422;-90
2023/11/05 21:13:32;;;;;;;14.65;9.38;;;;;;;9.85;84.80;97912.94;6180820;23;20027;-90
2023/11/05 21:16:00;;;;;;;20.80;9.25;;;;;;;10.02;85.33;97956.38;6183377;23;20008;-92
2023/11/05 21:18:28;;;;;;;15.52;9.52;;;;;;;10.30;85.33;97969.34;6211435;23;20068;-90
2023/11/05 21:21:28;;;;;;;18.52;9.52;;;;;;;10.07;84.86;97942.50;6229260;23;20055;-91
2023/11/05 21:24:27;;;;;;;15.75;9.95;;;;;;;9.93;85.24;97920.19;6208718;23;20056;-89
2023/11/05 21:26:54;;;;;;;16.88;9.85;;;;;;;10.32;85.30;97972.50;6181102;23;20025;-91
2023/11/05 21:30:23;;;;;;;18.33;9.43;;;;;;;10.30;85.53;97992.00;6180762;23;20540;-91
2023/11/05 21:38:55;;;;;;;17.35;9.80;;;;;;;10.29;85.90;97974.00;6291375;22;20445;-90
2023/11/05 21:41:51;;;;;;;14.13;10.10;;;;;;;10.36;85.84;97973.41;6221641;22;20027;-91
2023/11/05 21:44:28;;;;;;;17.38;9.82;;;;;;;10.03;86.18;97932.59;6278774;22;20095;-91
2023/11/05 21:50:42;;;;;;;19.33;9.75;;;;;;;10.32;86.52;97964.31;6293434;22;20070;-93
2023/11/05 21:53:12;;;;;;;15.65;10.05;;;;;;;9.92;86.03;97913.16;6266518;22;20058;-92
2023/11/05 21:55:41;;;;;;;18.40;10.40;;;;;;;10.26;86.63;97960.22;6241130;22;20019;-92
2023/11/05 21:58:28;;;;;;;20.02;11.02;;;;;;;10.34;86.53;97957.38;6241694;22;20075;-89
2023/11/05 22:00:54;;;;;;;16.92;11.23;;;;;;;10.12;86.33;97923.13;6144398;23;19998;-92
2023/11/05 22:03:24;;;;;;;14.38;10.05;;;;;;;10.03;86.19;97899.81;6125429;23;20013;-93
2023/11/05 22:11:52;;;;;;;16.00;10.95;;;;;;;9.99;86.45;97901.66;6294030;22;20110;-89
2023/11/05 22:17:49;;;;;;;21.88;10.88;;;;;;;10.00;86.75;97886.88;6265520;22;20214;-91
2023/11/05 22:21:06;;;;;;;18.90;10.90;;;;;;;10.38;87.07;97930.19;6258950;22;20051;-90
2023/11/05 22:23:42;;;;;;;16.83;10.18;;;;;;;10.14;86.81;97889.25;6235070;23;20016;-91
2023/11/05 22:26:09;;;;;;;;;;;;;;;10.30;87.00;97917.47;6233196;23;20040;-90
2023/11/05 22:28:35;;;;;;;14.13;8.32;;;;;;;10.02;87.00;97863.53;6260682;23;19922;-89
2023/11/05 22:31:14;;;;;;;12.95;7.60;;;;;;;10.16;86.83;97882.28;6234021;23;20023;-91
2023/11/05 22:33:43;;;;;;;14.52;8.13;;;;;;;10.07;86.68;97859.81;6233542;23;20016;-91
2023/11/05 22:36:10;;;;;;;12.15;7.68;;;;;;;9.81;86.49;97821.97;6260326;23;20099;-91
2023/11/05 22:38:39;;;;;;;13.45;8.30;;;;;;;10.09;86.83;97857.50;6235724;23;20074;-89
2023/11/05 22:41:05;;;;;;;12.43;7.90;;;;;;;10.10;86.51;97848.19;6234103;23;20012;-90
2023/11/05 22:43:43;;;;;;;10.00;7.30;;;;;;;10.15;86.73;97869.00;6237379;23;20378;-90
2023/11/05 22:49:09;;;;;;;15.07;7.60;;;;;;;10.09;87.08;97858.28;6248717;22;20012;-90
2023/11/05 22:51:39;;;;;;;13.00;7.80;;;;;;;10.10;87.37;97859.91;6244797;22;20023;-90
